Beek, Netherlands
Current Conditions -  °F | °C
As of 5:25 AM on Sunday 21 Dec 2014 (Local Time) from EHBK Reporting Station
Clear Clear  
Wind Chill: 30°   Ceiling: Unl
Heat Index: 37°   Visibility: 6mi
Dew Point: 36°   Wind: 10mph
Humidity: 93%   Direction: 210°SSW
Pressure: 30.42"   Gusts: NA
Location:  50.94°N, 5.8°E
Report Text: EHBK 210425Z AUTO 21009KT 9000 NCD 03/02 Q1030
Loading
Personal Weather Stations






























Interactive Weather Map New forecast layout! Learn more

10-Day Weather Forecast

Advertisements
Track Severe Weather on mobile